createdAt,value
2022-11-24T00:00:15.297Z,16.17
2022-11-24T00:01:20.770Z,16.63
2022-11-24T00:02:23.418Z,15.25
2022-11-24T00:03:25.787Z,15.30
2022-11-24T00:04:27.826Z,14.65
2022-11-24T00:05:29.591Z,14.23
2022-11-24T00:06:33.067Z,15.20
2022-11-24T00:07:35.039Z,16.30
2022-11-24T00:08:38.361Z,12.82
2022-11-24T00:09:40.355Z,14.32
2022-11-24T00:10:42.464Z,16.50
2022-11-24T00:11:44.427Z,14.85
2022-11-24T00:12:46.202Z,18.08
2022-11-24T00:13:48.268Z,16.05
2022-11-24T00:14:50.215Z,13.00
2022-11-24T00:15:52.022Z,14.70
2022-11-24T00:16:54.028Z,19.17
2022-11-24T00:17:56.367Z,15.90
2022-11-24T00:19:01.109Z,18.73
2022-11-24T00:20:03.051Z,17.60
2022-11-24T00:21:05.332Z,15.73
2022-11-24T00:22:07.258Z,16.90
2022-11-24T00:23:10.506Z,18.52
2022-11-24T00:24:12.494Z,15.00
2022-11-24T00:25:14.704Z,15.60
2022-11-24T00:26:19.767Z,16.98
2022-11-24T00:27:21.544Z,19.10
2022-11-24T00:28:23.473Z,14.45
2022-11-24T00:29:25.421Z,14.00
2022-11-24T00:30:27.386Z,14.23
2022-11-24T00:31:31.502Z,14.15
2022-11-24T00:32:33.588Z,16.58
2022-11-24T00:33:35.538Z,17.10
2022-11-24T00:34:37.678Z,16.95
2022-11-24T00:35:39.637Z,15.02
2022-11-24T00:36:42.191Z,20.05
2022-11-24T00:37:44.229Z,18.40
2022-11-24T00:38:48.122Z,17.13
2022-11-24T00:39:50.336Z,20.52
2022-11-24T00:40:52.803Z,18.15
2022-11-24T00:41:54.963Z,17.50
2022-11-24T00:42:56.888Z,16.38
2022-11-24T00:43:59.563Z,15.75
2022-11-24T00:45:12.976Z,15.18
2022-11-24T00:46:15.950Z,16.83
2022-11-24T00:47:18.091Z,15.30
2022-11-24T00:48:20.089Z,14.70
2022-11-24T00:49:22.030Z,17.38
2022-11-24T00:50:24.273Z,16.27
2022-11-24T00:51:28.439Z,17.95
2022-11-24T00:52:30.468Z,17.90
2022-11-24T00:53:32.821Z,15.55
2022-11-24T00:54:35.048Z,16.35
2022-11-24T00:55:37.462Z,17.42
2022-11-24T00:56:39.504Z,17.77
2022-11-24T00:57:41.644Z,19.20
2022-11-24T00:58:43.894Z,20.65
2022-11-24T00:59:45.895Z,20.98
2022-11-24T01:00:47.868Z,17.23
2022-11-24T01:01:50.122Z,14.50
2022-11-24T01:02:52.817Z,17.17
2022-11-24T01:03:55.965Z,16.90
2022-11-24T01:04:57.745Z,15.52
2022-11-24T01:06:16.289Z,17.08
2022-11-24T01:07:18.286Z,20.75
2022-11-24T01:08:20.319Z,18.95
2022-11-24T01:09:22.954Z,21.63
2022-11-24T01:10:24.913Z,19.08
2022-11-24T01:11:28.459Z,18.05
2022-11-24T01:12:30.223Z,15.32
2022-11-24T01:13:32.167Z,18.52
2022-11-24T01:14:34.323Z,18.75
2022-11-24T01:15:37.486Z,18.20
2022-11-24T01:16:39.469Z,18.88
2022-11-24T01:17:41.377Z,18.52
2022-11-24T01:18:43.505Z,18.95
2022-11-24T01:19:47.441Z,19.35
2022-11-24T01:20:49.650Z,19.27
2022-11-24T01:21:51.553Z,19.08
2022-11-24T01:22:53.335Z,18.35
2022-11-24T01:23:55.265Z,19.92
2022-11-24T01:24:57.442Z,16.40
2022-11-24T01:25:59.252Z,17.02
2022-11-24T01:27:01.206Z,16.60
2022-11-24T01:28:03.166Z,17.30
2022-11-24T01:29:05.387Z,16.92
2022-11-24T01:30:08.158Z,16.13
2022-11-24T01:31:10.908Z,17.45
2022-11-24T01:32:12.890Z,22.20
2022-11-24T01:33:14.876Z,22.30
2022-11-24T01:34:16.741Z,20.92
2022-11-24T01:35:18.518Z,21.05
2022-11-24T01:36:20.972Z,21.05
2022-11-24T01:37:24.269Z,22.52
2022-11-24T01:38:27.453Z,22.23
2022-11-24T01:39:29.811Z,23.88
2022-11-24T01:40:31.794Z,20.27
2022-11-24T01:41:34.618Z,19.10
2022-11-24T01:42:53.155Z,20.63
2022-11-24T01:43:56.277Z,21.02
2022-11-24T01:45:25.534Z,22.45
2022-11-24T01:46:32.505Z,17.85
2022-11-24T01:47:40.806Z,18.50
2022-11-24T01:48:49.024Z,19.40
2022-11-24T01:50:00.229Z,19.40
2022-11-24T01:52:16.211Z,19.02
2022-11-24T01:53:18.148Z,21.45
2022-11-24T01:54:29.059Z,17.90
2022-11-24T01:55:34.742Z,18.25
2022-11-24T01:56:40.186Z,21.70
2022-11-24T01:58:10.556Z,17.60
2022-11-24T01:59:14.122Z,21.08
2022-11-24T02:00:17.108Z,18.98
2022-11-24T02:01:19.164Z,17.95
2022-11-24T02:02:21.514Z,18.88
2022-11-24T02:03:29.864Z,16.20
2022-11-24T02:04:34.704Z,18.13
2022-11-24T02:05:51.026Z,16.95
2022-11-24T02:06:54.351Z,18.25
2022-11-24T02:08:00.525Z,17.88
2022-11-24T02:09:28.175Z,18.30
2022-11-24T02:10:30.538Z,19.45
2022-11-24T02:11:37.317Z,20.60
2022-11-24T02:12:41.624Z,20.75
2022-11-24T02:13:44.544Z,20.52
2022-11-24T02:14:46.676Z,19.60
2022-11-24T02:15:49.450Z,21.95
2022-11-24T02:16:52.114Z,21.50
2022-11-24T02:17:53.930Z,24.02
2022-11-24T02:18:55.918Z,21.30
2022-11-24T02:20:07.720Z,21.88
2022-11-24T02:21:12.351Z,21.63
2022-11-24T02:22:38.056Z,22.48
2022-11-24T02:23:51.039Z,22.85
2022-11-24T02:25:01.230Z,21.27
2022-11-24T02:26:08.399Z,21.40
2022-11-24T02:27:12.058Z,21.23
2022-11-24T02:28:17.978Z,18.48
2022-11-24T02:29:23.147Z,17.85
2022-11-24T02:30:25.193Z,19.85
2022-11-24T02:32:43.769Z,23.48
2022-11-24T02:33:45.886Z,22.48
2022-11-24T02:34:47.743Z,25.42
2022-11-24T02:35:49.547Z,21.88
2022-11-24T02:36:51.372Z,25.05
2022-11-24T02:37:53.158Z,27.08
2022-11-24T02:38:55.144Z,26.40
2022-11-24T02:39:57.266Z,27.98
2022-11-24T02:41:03.995Z,28.10
2022-11-24T02:42:10.437Z,24.27
2022-11-24T02:43:16.736Z,25.63
2022-11-24T02:44:22.085Z,25.67
2022-11-24T02:45:24.798Z,24.00
2022-11-24T02:46:26.710Z,22.88
2022-11-24T02:47:28.867Z,26.48
2022-11-24T02:48:30.798Z,25.35
2022-11-24T02:49:32.636Z,27.70
2022-11-24T02:50:34.594Z,25.75
2022-11-24T02:51:36.410Z,23.95
2022-11-24T02:52:38.270Z,26.73
2022-11-24T02:53:40.016Z,23.65
2022-11-24T02:54:42.026Z,27.58
2022-11-24T02:55:44.025Z,31.40
2022-11-24T02:56:45.994Z,25.38
2022-11-24T02:57:47.845Z,28.02
2022-11-24T02:58:49.886Z,31.30
2022-11-24T02:59:51.662Z,29.58
2022-11-24T03:00:54.496Z,28.27
2022-11-24T03:01:56.613Z,31.02
2022-11-24T03:02:58.881Z,31.45
2022-11-24T03:04:01.990Z,27.23
2022-11-24T03:05:04.165Z,28.52
2022-11-24T03:06:06.221Z,27.30
2022-11-24T03:07:08.263Z,28.77
2022-11-24T03:08:10.108Z,29.25
2022-11-24T03:09:12.136Z,30.98
2022-11-24T03:10:14.121Z,29.45
2022-11-24T03:11:15.984Z,29.90
2022-11-24T03:12:17.776Z,33.00
2022-11-24T03:13:19.851Z,27.73
2022-11-24T03:14:21.823Z,27.73
2022-11-24T03:15:23.863Z,32.17
2022-11-24T03:16:25.907Z,28.58
2022-11-24T03:17:27.700Z,32.65
2022-11-24T03:18:29.904Z,31.63
2022-11-24T03:19:31.882Z,34.33
2022-11-24T03:20:33.945Z,39.08
2022-11-24T03:21:37.100Z,36.80
2022-11-24T03:22:38.871Z,37.75
2022-11-24T03:23:40.813Z,33.78
2022-11-24T03:24:42.661Z,38.50
2022-11-24T03:25:44.647Z,37.17
2022-11-24T03:26:46.443Z,37.33
2022-11-24T03:27:48.499Z,37.38
2022-11-24T03:28:50.587Z,42.53
2022-11-24T03:29:53.471Z,37.92
2022-11-24T03:30:55.283Z,37.05
2022-11-24T03:31:57.146Z,37.10
2022-11-24T03:32:58.955Z,42.10
2022-11-24T03:34:01.070Z,43.08
2022-11-24T03:35:03.103Z,42.80
2022-11-24T03:36:06.437Z,42.92
2022-11-24T03:37:08.235Z,40.45
2022-11-24T03:38:10.459Z,43.30
2022-11-24T03:39:12.368Z,39.03
2022-11-24T03:40:14.421Z,43.22
2022-11-24T03:41:16.237Z,37.03
2022-11-24T03:42:18.089Z,42.42
2022-11-24T03:43:20.133Z,37.58
2022-11-24T03:44:22.586Z,46.05
2022-11-24T03:46:46.364Z,43.70
2022-11-24T03:47:51.974Z,45.45
2022-11-24T03:48:54.015Z,53.60
2022-11-24T03:49:56.005Z,42.42
2022-11-24T03:51:00.074Z,47.97
2022-11-24T03:52:07.632Z,43.55
2022-11-24T03:53:10.357Z,54.92
2022-11-24T03:54:12.207Z,51.67
2022-11-24T03:55:14.197Z,54.85
2022-11-24T03:56:16.417Z,50.00
2022-11-24T03:57:18.383Z,53.50
2022-11-24T03:58:20.581Z,43.65
2022-11-24T03:59:22.479Z,45.95
2022-11-24T04:00:24.502Z,45.42
2022-11-24T04:01:26.425Z,41.28
2022-11-24T04:02:28.314Z,45.53
2022-11-24T04:03:30.442Z,45.90
2022-11-24T04:04:32.443Z,48.95
2022-11-24T04:05:36.579Z,49.08
2022-11-24T04:06:38.969Z,47.45
2022-11-24T04:07:41.039Z,44.92
2022-11-24T04:08:43.031Z,53.88
2022-11-24T04:09:45.502Z,48.13
2022-11-24T04:10:52.834Z,47.15
2022-11-24T04:12:13.210Z,41.20
2022-11-24T04:13:16.530Z,40.75
2022-11-24T04:14:19.616Z,38.22
2022-11-24T04:15:22.139Z,40.22
2022-11-24T04:16:24.057Z,41.33
2022-11-24T04:17:26.073Z,50.45
2022-11-24T04:18:28.044Z,42.10
2022-11-24T04:19:30.065Z,44.95
2022-11-24T04:20:31.842Z,41.20
2022-11-24T04:21:33.654Z,42.60
2022-11-24T04:22:35.852Z,42.17
2022-11-24T04:23:37.601Z,43.13
2022-11-24T04:24:39.379Z,36.80
2022-11-24T04:25:42.351Z,41.70
2022-11-24T04:26:44.159Z,42.72
2022-11-24T04:27:50.317Z,43.60
2022-11-24T04:28:52.280Z,41.08
2022-11-24T04:29:54.431Z,35.80
2022-11-24T04:31:01.679Z,41.55
2022-11-24T04:32:03.592Z,41.83
2022-11-24T04:33:05.593Z,39.88
2022-11-24T04:34:07.589Z,37.05
2022-11-24T04:35:09.531Z,40.30
2022-11-24T04:36:11.318Z,39.20
2022-11-24T04:37:13.495Z,40.20
2022-11-24T04:39:20.149Z,39.28
2022-11-24T04:39:37.460Z,42.60
2022-11-24T04:40:39.300Z,41.67
2022-11-24T04:41:41.239Z,46.35
2022-11-24T04:42:43.028Z,45.35
2022-11-24T04:43:45.207Z,44.20
2022-11-24T04:44:47.343Z,40.83
2022-11-24T04:45:49.126Z,39.15
2022-11-24T04:46:51.212Z,41.22
2022-11-24T04:47:53.232Z,41.80
2022-11-24T04:48:55.004Z,44.53
2022-11-24T04:49:56.846Z,38.38
2022-11-24T04:50:58.827Z,38.63
2022-11-24T04:52:00.640Z,39.50
2022-11-24T04:53:02.420Z,41.47
2022-11-24T04:54:04.934Z,41.47
2022-11-24T04:55:07.258Z,41.75
2022-11-24T04:56:09.678Z,40.72
2022-11-24T04:57:22.789Z,39.78
2022-11-24T04:58:24.875Z,40.78
2022-11-24T04:59:33.230Z,44.70
2022-11-24T05:00:36.647Z,37.55
2022-11-24T05:01:39.063Z,46.53
2022-11-24T05:02:41.020Z,39.42
2022-11-24T05:03:51.104Z,49.63
2022-11-24T05:04:54.566Z,41.70
2022-11-24T05:05:59.880Z,42.28
2022-11-24T05:07:02.106Z,41.22
2022-11-24T05:08:05.916Z,42.58
2022-11-24T05:09:08.903Z,45.00
2022-11-24T05:10:29.467Z,41.38
2022-11-24T05:11:32.766Z,38.42
2022-11-24T05:12:39.625Z,40.42
2022-11-24T05:13:48.632Z,38.00
2022-11-24T05:14:52.016Z,42.92
2022-11-24T05:15:54.193Z,41.50
2022-11-24T05:17:14.919Z,40.50
2022-11-24T05:18:17.172Z,41.40
2022-11-24T05:19:19.887Z,39.88
2022-11-24T05:20:22.351Z,43.08
2022-11-24T05:21:25.290Z,45.45
2022-11-24T05:22:29.050Z,43.47
2022-11-24T05:23:36.976Z,40.60
2022-11-24T05:24:43.216Z,41.97
2022-11-24T05:25:47.573Z,41.85
2022-11-24T05:26:49.798Z,33.85
2022-11-24T05:27:51.788Z,45.47
2022-11-24T05:28:53.891Z,47.10
2022-11-24T05:29:56.263Z,42.55
2022-11-24T05:31:05.386Z,39.72
2022-11-24T05:32:12.979Z,37.95
2022-11-24T05:33:23.026Z,41.78
2022-11-24T05:34:31.208Z,39.50
2022-11-24T05:35:34.227Z,41.50
2022-11-24T05:36:54.239Z,38.10
2022-11-24T05:37:57.948Z,33.08
2022-11-24T05:39:00.284Z,41.78
2022-11-24T05:40:02.454Z,41.42
2022-11-24T05:41:05.623Z,38.78
2022-11-24T05:42:26.911Z,40.10
2022-11-24T05:43:29.146Z,42.22
2022-11-24T05:44:34.413Z,39.42
2022-11-24T05:45:36.368Z,40.65
2022-11-24T05:46:38.572Z,42.03
2022-11-24T05:47:41.599Z,41.95
2022-11-24T05:48:43.547Z,42.13
2022-11-24T05:49:45.820Z,42.75
2022-11-24T05:50:54.427Z,33.95
2022-11-24T05:51:56.246Z,42.55
2022-11-24T05:53:05.403Z,36.63
2022-11-24T05:54:07.255Z,44.78
2022-11-24T05:55:10.859Z,38.22
2022-11-24T05:56:12.688Z,37.75
2022-11-24T05:57:16.266Z,37.17
2022-11-24T05:58:18.228Z,37.05
2022-11-24T05:59:19.992Z,38.55
2022-11-24T06:00:21.882Z,43.35
2022-11-24T06:01:23.775Z,40.63
2022-11-24T06:02:26.053Z,44.50
2022-11-24T06:03:28.190Z,40.88
2022-11-24T06:04:30.135Z,42.67
2022-11-24T06:05:33.294Z,40.58
2022-11-24T06:06:35.631Z,37.17
2022-11-24T06:07:37.686Z,35.88
2022-11-24T06:08:39.810Z,34.80
2022-11-24T06:09:49.584Z,36.90
2022-11-24T06:10:51.998Z,37.60
2022-11-24T06:11:54.106Z,36.20
2022-11-24T06:12:56.162Z,34.67
2022-11-24T06:13:58.491Z,35.03
2022-11-24T06:15:01.485Z,41.50
2022-11-24T06:16:03.842Z,32.75
2022-11-24T06:17:06.394Z,31.42
2022-11-24T06:18:08.317Z,35.63
2022-11-24T06:19:11.475Z,35.10
2022-11-24T06:20:13.477Z,34.97
2022-11-24T06:21:15.209Z,32.17
2022-11-24T06:22:19.063Z,30.35
2022-11-24T06:23:21.282Z,30.73
2022-11-24T06:24:23.501Z,33.05
2022-11-24T06:25:25.446Z,35.45
2022-11-24T06:26:27.894Z,35.85
2022-11-24T06:27:29.786Z,35.30
2022-11-24T06:28:32.320Z,37.92
2022-11-24T06:29:34.288Z,34.88
2022-11-24T06:30:36.149Z,32.45
2022-11-24T06:31:38.177Z,29.55
2022-11-24T06:32:49.066Z,33.80
2022-11-24T06:33:51.740Z,35.17
2022-11-24T06:34:53.581Z,34.50
2022-11-24T06:36:01.550Z,37.92
2022-11-24T06:37:03.501Z,37.00
2022-11-24T06:38:05.548Z,70.13
2022-11-24T06:39:07.889Z,80.22
2022-11-24T06:40:10.408Z,64.28
2022-11-24T06:41:15.087Z,56.42
2022-11-24T06:42:21.591Z,52.72
2022-11-24T06:43:23.550Z,50.15
2022-11-24T06:44:25.878Z,43.35
2022-11-24T06:45:27.823Z,40.97
2022-11-24T06:46:29.715Z,37.17
2022-11-24T06:47:31.438Z,40.20
2022-11-24T06:48:34.267Z,34.28
2022-11-24T06:49:36.004Z,31.85
2022-11-24T06:50:37.791Z,31.75
2022-11-24T06:51:39.614Z,31.75
2022-11-24T06:52:41.370Z,32.65
2022-11-24T06:53:43.107Z,32.20
2022-11-24T06:54:44.851Z,35.30
2022-11-24T06:55:47.819Z,36.83
2022-11-24T06:56:49.560Z,35.83
2022-11-24T06:57:51.272Z,103.47
2022-11-24T06:58:54.000Z,102.45
2022-11-24T06:59:56.340Z,62.47
2022-11-24T07:01:00.224Z,48.45
2022-11-24T07:02:02.438Z,36.13
2022-11-24T07:03:04.577Z,30.83
2022-11-24T07:04:06.303Z,31.95
2022-11-24T07:05:08.407Z,36.17
2022-11-24T07:06:10.312Z,34.28
2022-11-24T07:07:12.707Z,36.15
2022-11-24T07:08:17.916Z,31.88
2022-11-24T07:09:19.925Z,35.72
2022-11-24T07:10:22.044Z,30.88
2022-11-24T07:11:24.764Z,41.25
2022-11-24T07:12:26.467Z,38.80
2022-11-24T07:13:28.154Z,41.28
2022-11-24T07:14:29.887Z,46.90
2022-11-24T07:15:31.679Z,99.30
2022-11-24T07:16:34.249Z,77.93
2022-11-24T07:17:40.121Z,70.22
2022-11-24T07:18:46.070Z,77.68
2022-11-24T07:19:47.766Z,78.18
2022-11-24T07:20:49.473Z,62.75
2022-11-24T07:21:51.699Z,53.55
2022-11-24T07:22:59.516Z,47.17
2022-11-24T07:24:01.259Z,50.75
2022-11-24T07:25:07.115Z,56.67
2022-11-24T07:26:10.456Z,84.00
2022-11-24T07:27:12.336Z,85.72
2022-11-24T07:28:14.147Z,87.47
2022-11-24T07:29:15.898Z,57.05
2022-11-24T07:30:18.091Z,60.25
2022-11-24T07:31:22.159Z,53.92
2022-11-24T07:32:24.118Z,46.67
2022-11-24T07:33:26.230Z,40.22
2022-11-24T07:34:28.126Z,36.67
2022-11-24T07:35:30.826Z,37.42
2022-11-24T07:36:32.562Z,38.00
2022-11-24T07:37:34.429Z,31.85
2022-11-24T07:38:36.835Z,33.15
2022-11-24T07:39:38.622Z,33.72
2022-11-24T07:40:40.320Z,33.42
2022-11-24T07:41:42.021Z,32.92
2022-11-24T07:42:43.758Z,32.00
2022-11-24T07:43:46.078Z,31.48
2022-11-24T07:44:47.835Z,28.23
2022-11-24T07:45:53.508Z,27.85
2022-11-24T07:46:55.635Z,29.42
2022-11-24T07:47:57.740Z,34.05
2022-11-24T07:48:59.500Z,41.40
2022-11-24T07:50:01.521Z,46.08
2022-11-24T07:51:04.732Z,43.50
2022-11-24T07:52:08.406Z,47.10
2022-11-24T07:53:10.336Z,40.45
2022-11-24T07:54:12.479Z,39.92
2022-11-24T07:55:14.736Z,48.13
2022-11-24T07:56:16.574Z,42.30
2022-11-24T07:57:18.315Z,43.03
2022-11-24T07:58:20.072Z,55.53
2022-11-24T07:59:21.850Z,40.00
2022-11-24T08:00:23.642Z,33.88
2022-11-24T08:01:25.439Z,36.53
2022-11-24T08:02:27.443Z,31.63
2022-11-24T08:03:29.263Z,48.85
2022-11-24T08:04:31.326Z,45.97
2022-11-24T08:05:33.218Z,29.90
2022-11-24T08:06:40.805Z,26.70
2022-11-24T08:07:46.463Z,37.08
2022-11-24T08:08:48.273Z,47.60
2022-11-24T08:09:50.542Z,59.97
2022-11-24T08:10:52.764Z,53.60
2022-11-24T08:11:54.482Z,49.15
2022-11-24T08:13:00.417Z,47.22
2022-11-24T08:14:02.159Z,34.33
2022-11-24T08:15:09.440Z,34.55
2022-11-24T08:16:17.886Z,35.55
2022-11-24T08:17:20.201Z,30.20
2022-11-24T08:18:24.561Z,27.55
2022-11-24T08:19:26.369Z,29.17
2022-11-24T08:20:28.139Z,29.73
2022-11-24T08:21:29.878Z,28.13
2022-11-24T08:22:31.646Z,27.30
2022-11-24T08:23:33.938Z,27.95
2022-11-24T08:24:36.170Z,28.23
2022-11-24T08:25:38.128Z,28.33
2022-11-24T08:26:40.195Z,27.27
2022-11-24T08:27:41.940Z,28.48
2022-11-24T08:28:45.845Z,25.08
2022-11-24T08:29:47.580Z,23.92
2022-11-24T08:30:49.419Z,25.10
2022-11-24T08:31:51.197Z,39.15
2022-11-24T08:32:54.037Z,43.95
2022-11-24T08:33:56.398Z,62.92
2022-11-24T08:35:13.032Z,58.63
2022-11-24T08:36:18.710Z,44.70
2022-11-24T08:37:20.447Z,45.42
2022-11-24T08:38:22.152Z,38.65
2022-11-24T08:39:23.987Z,30.42
2022-11-24T08:40:26.073Z,29.13
2022-11-24T08:41:29.460Z,22.63
2022-11-24T08:42:31.545Z,24.77
2022-11-24T08:43:33.517Z,26.65
2022-11-24T08:44:35.594Z,27.45
2022-11-24T08:45:41.365Z,26.08
2022-11-24T08:46:44.640Z,26.75
2022-11-24T08:47:46.368Z,25.02
2022-11-24T08:48:50.280Z,28.13
2022-11-24T08:49:52.434Z,24.83
2022-11-24T08:50:54.261Z,32.63
2022-11-24T08:51:57.659Z,40.08
2022-11-24T08:52:59.564Z,39.33
2022-11-24T08:54:02.192Z,26.98
2022-11-24T08:55:04.334Z,26.80
2022-11-24T08:56:07.375Z,23.15
2022-11-24T08:57:09.107Z,22.58
2022-11-24T08:58:10.960Z,23.65
2022-11-24T08:59:14.023Z,29.35
2022-11-24T09:00:22.485Z,23.77
2022-11-24T09:01:25.067Z,27.58
2022-11-24T09:02:27.272Z,21.38
2022-11-24T09:03:29.356Z,22.98
2022-11-24T09:04:31.208Z,22.80
2022-11-24T09:06:55.209Z,23.63
2022-11-24T09:07:57.945Z,24.27
2022-11-24T09:09:00.080Z,21.98
2022-11-24T09:10:02.093Z,24.70
2022-11-24T09:11:06.392Z,32.70
2022-11-24T09:12:14.209Z,25.00
2022-11-24T09:13:16.361Z,22.98
2022-11-24T09:14:18.151Z,21.00
2022-11-24T09:15:20.723Z,23.48
2022-11-24T09:16:26.037Z,25.10
2022-11-24T09:17:28.028Z,25.90
2022-11-24T09:18:30.503Z,25.48
2022-11-24T09:19:32.791Z,27.58
2022-11-24T09:20:34.861Z,25.52
2022-11-24T09:21:39.496Z,26.83
2022-11-24T09:22:43.047Z,61.60
2022-11-24T09:23:48.413Z,47.80
2022-11-24T09:24:50.194Z,48.22
2022-11-24T09:25:51.952Z,44.22
2022-11-24T09:26:55.887Z,36.95
2022-11-24T09:27:58.625Z,44.50
2022-11-24T09:29:02.007Z,26.58
2022-11-24T09:30:04.811Z,27.77
2022-11-24T09:31:10.464Z,26.85
2022-11-24T09:32:12.858Z,26.63
2022-11-24T09:33:14.607Z,37.92
2022-11-24T09:34:16.867Z,65.43
2022-11-24T09:35:18.702Z,36.45
2022-11-24T09:36:21.292Z,34.03
2022-11-24T09:37:25.937Z,31.10
2022-11-24T09:38:31.631Z,29.55
2022-11-24T09:39:33.646Z,29.75
2022-11-24T09:40:35.703Z,32.80
2022-11-24T09:42:04.317Z,31.48
2022-11-24T09:43:41.395Z,27.67
2022-11-24T09:44:58.652Z,24.73
2022-11-24T09:46:13.069Z,37.25
2022-11-24T09:47:38.849Z,25.80
2022-11-24T09:48:46.383Z,25.80
2022-11-24T09:50:18.955Z,26.05
2022-11-24T09:51:25.886Z,23.10
2022-11-24T09:52:41.140Z,26.40
2022-11-24T09:53:59.809Z,23.65
2022-11-24T09:55:05.086Z,24.48
2022-11-24T09:56:33.474Z,23.63
2022-11-24T09:57:37.715Z,21.02
2022-11-24T09:59:00.951Z,19.85
2022-11-24T10:00:12.254Z,20.52
2022-11-24T10:02:32.452Z,26.73
2022-11-24T10:03:34.375Z,24.95
2022-11-24T10:04:42.070Z,25.02
2022-11-24T10:05:45.886Z,22.00
2022-11-24T10:07:00.587Z,22.70
2022-11-24T10:08:21.290Z,19.85
2022-11-24T10:09:33.017Z,21.60
2022-11-24T10:10:47.893Z,22.80
2022-11-24T10:12:10.546Z,23.55
2022-11-24T10:14:04.320Z,25.70
2022-11-24T10:15:41.042Z,21.23
2022-11-24T10:16:53.025Z,21.48
2022-11-24T10:18:09.301Z,22.42
2022-11-24T10:19:33.888Z,22.83
2022-11-24T10:20:57.127Z,22.52
2022-11-24T10:22:02.208Z,22.63
2022-11-24T10:23:13.464Z,22.25
2022-11-24T10:25:48.686Z,19.98
2022-11-24T10:27:16.083Z,19.58
2022-11-24T10:28:19.508Z,20.30
2022-11-24T10:29:56.169Z,20.73
2022-11-24T10:31:48.029Z,21.73
2022-11-24T10:33:08.531Z,19.88
2022-11-24T10:34:21.406Z,19.60
2022-11-24T10:35:36.792Z,20.88
2022-11-24T10:37:09.754Z,21.10
2022-11-24T10:38:35.553Z,17.52
2022-11-24T10:39:59.736Z,19.08
2022-11-24T10:41:24.716Z,22.48
2022-11-24T10:42:32.565Z,24.42
2022-11-24T10:43:34.301Z,22.98
2022-11-24T10:44:36.435Z,19.77
2022-11-24T10:45:39.764Z,21.60
2022-11-24T10:46:42.309Z,21.20
2022-11-24T10:47:45.629Z,25.52
2022-11-24T10:48:51.759Z,25.50
2022-11-24T10:49:59.691Z,22.40
2022-11-24T10:51:38.626Z,20.50
2022-11-24T10:52:44.154Z,22.05
2022-11-24T10:53:47.169Z,18.90
2022-11-24T10:55:03.659Z,21.30
2022-11-24T10:56:06.158Z,20.73
2022-11-24T10:57:08.124Z,21.77
2022-11-24T10:58:17.257Z,20.25
2022-11-24T10:59:25.018Z,21.00
2022-11-24T11:00:26.884Z,20.70
2022-11-24T11:01:32.697Z,21.20
2022-11-24T11:02:37.666Z,21.25
2022-11-24T11:04:16.326Z,22.08
2022-11-24T11:05:33.007Z,23.60
2022-11-24T11:06:36.345Z,23.88
2022-11-24T11:07:38.220Z,22.88
2022-11-24T11:08:40.184Z,22.27
2022-11-24T11:09:42.118Z,22.25
2022-11-24T11:10:45.040Z,21.80
2022-11-24T11:11:51.208Z,23.15
2022-11-24T11:12:52.963Z,20.73
2022-11-24T11:14:05.106Z,22.02
2022-11-24T11:15:29.939Z,23.55
2022-11-24T11:16:52.531Z,25.55
2022-11-24T11:18:01.228Z,43.50
2022-11-24T11:19:47.881Z,32.45
2022-11-24T11:21:05.678Z,26.48
2022-11-24T11:22:13.279Z,45.50
2022-11-24T11:23:27.351Z,36.90
2022-11-24T11:24:29.810Z,28.60
2022-11-24T11:25:35.396Z,23.92
2022-11-24T11:26:38.671Z,38.22
2022-11-24T11:27:42.111Z,30.52
2022-11-24T11:34:48.091Z,19.73
2022-11-24T11:35:51.056Z,22.88
2022-11-24T11:36:56.143Z,20.77
2022-11-24T11:38:04.054Z,21.30
2022-11-24T11:39:05.966Z,19.60
2022-11-24T11:40:22.115Z,23.33
2022-11-24T11:41:46.221Z,33.10
2022-11-24T11:43:02.428Z,35.03
2022-11-24T11:44:25.790Z,37.00
2022-11-24T11:45:41.617Z,23.30
2022-11-24T11:46:45.011Z,24.08
2022-11-24T11:47:59.272Z,24.25
2022-11-24T11:49:01.157Z,22.88
2022-11-24T11:50:03.115Z,22.13
2022-11-24T11:51:25.915Z,28.52
2022-11-24T11:52:33.040Z,21.73
2022-11-24T11:53:53.712Z,21.52
2022-11-24T11:55:29.966Z,26.83
2022-11-24T11:56:40.278Z,28.00
2022-11-24T11:57:54.348Z,40.30
2022-11-24T11:59:06.910Z,36.70
2022-11-24T12:00:13.278Z,28.20
2022-11-24T12:01:36.046Z,32.35
2022-11-24T12:02:53.389Z,28.48
2022-11-24T12:03:55.783Z,26.02
2022-11-24T12:05:01.862Z,28.08
2022-11-24T12:06:15.440Z,26.83
2022-11-24T12:07:19.785Z,32.58
2022-11-24T12:08:24.322Z,35.50
2022-11-24T12:09:56.146Z,26.85
2022-11-24T12:11:24.132Z,25.67
2022-11-24T12:12:49.456Z,40.85
2022-11-24T12:14:20.556Z,36.45
2022-11-24T12:15:43.059Z,74.47
2022-11-24T12:17:28.918Z,90.70
2022-11-24T12:18:57.684Z,84.38
2022-11-24T12:20:30.380Z,64.43
2022-11-24T12:21:52.446Z,45.80
2022-11-24T12:22:56.675Z,85.10
2022-11-24T12:24:13.076Z,69.18
2022-11-24T12:25:26.874Z,35.92
2022-11-24T12:26:37.848Z,44.90
2022-11-24T12:27:50.326Z,25.45
2022-11-24T12:29:07.229Z,26.80
2022-11-24T12:30:17.180Z,24.92
2022-11-24T12:31:44.383Z,26.73
2022-11-24T12:33:17.248Z,39.47
2022-11-24T12:34:44.534Z,37.03
2022-11-24T12:35:52.358Z,18.55
2022-11-24T12:37:12.648Z,21.77
2022-11-24T12:38:42.643Z,17.52
2022-11-24T12:40:18.743Z,23.88
2022-11-24T12:43:09.795Z,39.58
2022-11-24T12:44:44.499Z,34.40
2022-11-24T12:45:58.359Z,24.15
2022-11-24T12:47:28.598Z,21.63
2022-11-24T12:48:33.610Z,55.92
2022-11-24T12:49:43.945Z,91.13
2022-11-24T12:50:46.944Z,47.03
2022-11-24T12:51:55.959Z,33.22
2022-11-24T12:53:05.214Z,32.80
2022-11-24T12:54:13.028Z,41.17
2022-11-24T12:55:22.326Z,54.28
2022-11-24T12:56:37.012Z,58.00
2022-11-24T12:58:18.196Z,60.97
2022-11-24T12:59:28.385Z,61.92
2022-11-24T13:00:34.882Z,84.97
2022-11-24T13:01:47.377Z,54.20
2022-11-24T13:03:14.299Z,32.47
2022-11-24T13:04:38.052Z,31.75
2022-11-24T13:06:03.022Z,24.27
2022-11-24T13:07:11.174Z,28.48
2022-11-24T13:08:17.920Z,26.45
2022-11-24T13:09:20.162Z,30.15
2022-11-24T13:10:55.315Z,27.33
2022-11-24T13:11:53.153Z,70.82
2022-11-24T13:12:55.927Z,31.50
2022-11-24T13:14:06.663Z,28.75
2022-11-24T13:15:43.586Z,24.45
2022-11-24T13:18:43.322Z,80.32
2022-11-24T13:19:46.136Z,99.45
2022-11-24T13:20:48.316Z,54.25
2022-11-24T13:22:01.705Z,57.33
2022-11-24T13:23:05.140Z,44.70
2022-11-24T13:24:23.143Z,38.30
2022-11-24T13:25:35.783Z,28.33
2022-11-24T13:26:43.582Z,23.48
2022-11-24T13:27:48.531Z,21.00
2022-11-24T13:29:13.402Z,19.50
2022-11-24T13:30:35.380Z,18.67
2022-11-24T13:31:37.267Z,17.48
2022-11-24T13:32:39.006Z,17.67
2022-11-24T13:33:40.841Z,16.60
2022-11-24T13:34:42.877Z,17.88
2022-11-24T13:36:02.594Z,25.77
2022-11-24T13:37:31.408Z,38.95
2022-11-24T13:38:44.355Z,30.83
2022-11-24T13:39:58.254Z,16.65
2022-11-24T13:41:27.083Z,19.08
2022-11-24T13:42:41.476Z,24.00
2022-11-24T13:44:25.329Z,24.80
2022-11-24T13:45:43.096Z,20.23
2022-11-24T13:47:05.306Z,17.85
2022-11-24T13:48:21.185Z,18.73
2022-11-24T13:49:24.378Z,18.13
2022-11-24T13:50:53.378Z,18.33
2022-11-24T13:52:39.524Z,18.52
2022-11-24T13:53:45.773Z,22.95
2022-11-24T13:54:47.607Z,18.67
2022-11-24T13:55:58.128Z,25.05
2022-11-24T13:57:33.786Z,22.48
2022-11-24T13:59:02.803Z,19.20
2022-11-24T14:00:18.154Z,17.60
2022-11-24T14:01:24.607Z,18.95
2022-11-24T14:02:26.657Z,16.45
2022-11-24T14:03:38.949Z,19.58
2022-11-24T14:04:44.819Z,20.02
2022-11-24T14:05:53.267Z,17.40
2022-11-24T14:07:07.085Z,17.42
2022-11-24T14:08:20.153Z,17.63
2022-11-24T14:09:21.949Z,64.30
2022-11-24T14:10:36.369Z,43.58
2022-11-24T14:11:38.269Z,35.88
2022-11-24T14:12:40.017Z,19.33
2022-11-24T14:13:41.766Z,27.85
2022-11-24T14:14:45.465Z,27.95
2022-11-24T14:16:02.382Z,22.35
2022-11-24T14:17:16.001Z,17.95
2022-11-24T14:18:21.613Z,15.05
2022-11-24T14:19:27.961Z,15.65
2022-11-24T14:20:32.638Z,27.98
2022-11-24T14:21:38.146Z,25.13
2022-11-24T14:22:41.276Z,31.85
2022-11-24T14:23:45.800Z,32.33
2022-11-24T14:24:58.803Z,20.75
2022-11-24T14:26:00.636Z,26.75
2022-11-24T14:27:02.410Z,23.55
2022-11-24T14:28:39.626Z,25.20
2022-11-24T14:30:02.165Z,22.52
2022-11-24T14:31:26.374Z,28.85
2022-11-24T14:32:28.736Z,17.38
2022-11-24T14:33:30.584Z,17.33
2022-11-24T14:34:36.006Z,20.20
2022-11-24T14:35:45.247Z,17.77